sensor_id;sensor_type;location;lat;lon;timestamp;P1;durP1;ratioP1;P2;durP2;ratioP2
51298;SDS011;37382;45.192;9.790;2023-04-01T00:00:48;30.02;;;16.45;;
51298;SDS011;37382;45.192;9.790;2023-04-01T00:03:16;22.02;;;14.52;;
51298;SDS011;37382;45.192;9.790;2023-04-01T00:05:45;32.10;;;14.10;;
51298;SDS011;37382;45.192;9.790;2023-04-01T00:08:13;24.88;;;13.48;;
51298;SDS011;37382;45.192;9.790;2023-04-01T00:10:41;25.45;;;12.60;;
51298;SDS011;37382;45.192;9.790;2023-04-01T00:13:08;25.70;;;12.93;;
51298;SDS011;37382;45.192;9.790;2023-04-01T00:15:36;27.85;;;13.80;;
51298;SDS011;37382;45.192;9.790;2023-04-01T00:18:04;22.27;;;12.68;;
51298;SDS011;37382;45.192;9.790;2023-04-01T00:20:32;18.38;;;12.02;;
51298;SDS011;37382;45.192;9.790;2023-04-01T00:23:00;19.75;;;11.75;;
51298;SDS011;37382;45.192;9.790;2023-04-01T00:25:28;19.60;;;12.32;;
51298;SDS011;37382;45.192;9.790;2023-04-01T00:27:56;28.23;;;11.60;;
51298;SDS011;37382;45.192;9.790;2023-04-01T00:30:24;20.88;;;12.13;;
51298;SDS011;37382;45.192;9.790;2023-04-01T00:32:52;20.90;;;11.07;;
51298;SDS011;37382;45.192;9.790;2023-04-01T00:35:20;17.40;;;10.02;;
51298;SDS011;37382;45.192;9.790;2023-04-01T00:37:49;15.48;;;10.13;;
51298;SDS011;37382;45.192;9.790;2023-04-01T00:40:26;18.55;;;10.27;;
51298;SDS011;37382;45.192;9.790;2023-04-01T00:43:00;19.88;;;10.18;;
51298;SDS011;37382;45.192;9.790;2023-04-01T00:45:35;19.30;;;10.48;;
51298;SDS011;37382;45.192;9.790;2023-04-01T00:48:07;17.70;;;10.38;;
51298;SDS011;37382;45.192;9.790;2023-04-01T00:50:38;20.42;;;11.05;;
51298;SDS011;37382;45.192;9.790;2023-04-01T00:53:09;25.70;;;10.25;;
51298;SDS011;37382;45.192;9.790;2023-04-01T00:55:39;19.13;;;11.38;;
51298;SDS011;37382;45.192;9.790;2023-04-01T00:58:13;20.73;;;11.43;;
51298;SDS011;37382;45.192;9.790;2023-04-01T01:00:44;20.77;;;10.98;;
51298;SDS011;37382;45.192;9.790;2023-04-01T01:03:14;23.33;;;11.68;;
51298;SDS011;37382;45.192;9.790;2023-04-01T01:08:25;21.42;;;12.30;;
51298;SDS011;37382;45.192;9.790;2023-04-01T01:11:11;20.70;;;12.27;;
51298;SDS011;37382;45.192;9.790;2023-04-01T01:13:48;29.58;;;14.50;;
51298;SDS011;37382;45.192;9.790;2023-04-01T01:16:32;27.60;;;16.02;;
51298;SDS011;37382;45.192;9.790;2023-04-01T01:19:14;28.13;;;16.60;;
51298;SDS011;37382;45.192;9.790;2023-04-01T01:27:54;24.48;;;16.52;;
51298;SDS011;37382;45.192;9.790;2023-04-01T01:30:42;30.38;;;18.88;;
51298;SDS011;37382;45.192;9.790;2023-04-01T01:33:35;32.13;;;20.27;;
51298;SDS011;37382;45.192;9.790;2023-04-01T01:36:06;32.97;;;21.00;;
51298;SDS011;37382;45.192;9.790;2023-04-01T01:38:39;39.75;;;21.52;;
51298;SDS011;37382;45.192;9.790;2023-04-01T01:41:07;42.95;;;22.33;;
51298;SDS011;37382;45.192;9.790;2023-04-01T01:43:39;35.75;;;24.45;;
51298;SDS011;37382;45.192;9.790;2023-04-01T01:46:12;37.72;;;24.80;;
51298;SDS011;37382;45.192;9.790;2023-04-01T01:48:45;40.58;;;26.15;;
51298;SDS011;37382;45.192;9.790;2023-04-01T01:51:14;36.85;;;24.88;;
51298;SDS011;37382;45.192;9.790;2023-04-01T01:53:43;36.92;;;26.52;;
51298;SDS011;37382;45.192;9.790;2023-04-01T01:56:11;40.75;;;27.85;;
51298;SDS011;37382;45.192;9.790;2023-04-01T01:58:54;41.30;;;27.17;;
51298;SDS011;37382;45.192;9.790;2023-04-01T02:01:28;32.25;;;25.13;;
51298;SDS011;37382;45.192;9.790;2023-04-01T02:04:06;39.55;;;27.48;;
51298;SDS011;37382;45.192;9.790;2023-04-01T02:06:37;38.13;;;25.42;;
51298;SDS011;37382;45.192;9.790;2023-04-01T02:09:10;38.08;;;25.20;;
51298;SDS011;37382;45.192;9.790;2023-04-01T02:11:58;45.53;;;26.88;;
51298;SDS011;37382;45.192;9.790;2023-04-01T02:14:43;35.17;;;24.98;;
51298;SDS011;37382;45.192;9.790;2023-04-01T02:17:19;41.38;;;25.90;;
51298;SDS011;37382;45.192;9.790;2023-04-01T02:19:52;40.17;;;26.38;;
51298;SDS011;37382;45.192;9.790;2023-04-01T02:22:28;40.35;;;25.50;;
51298;SDS011;37382;45.192;9.790;2023-04-01T02:25:11;34.22;;;24.73;;
51298;SDS011;37382;45.192;9.790;2023-04-01T02:27:43;36.08;;;24.83;;
51298;SDS011;37382;45.192;9.790;2023-04-01T02:30:12;41.10;;;25.88;;
51298;SDS011;37382;45.192;9.790;2023-04-01T02:32:40;47.10;;;26.33;;
51298;SDS011;37382;45.192;9.790;2023-04-01T02:35:10;40.92;;;27.17;;
51298;SDS011;37382;45.192;9.790;2023-04-01T02:37:40;41.00;;;27.77;;
51298;SDS011;37382;45.192;9.790;2023-04-01T02:40:13;44.63;;;28.63;;
51298;SDS011;37382;45.192;9.790;2023-04-01T02:42:41;47.85;;;29.23;;
51298;SDS011;37382;45.192;9.790;2023-04-01T02:45:09;44.97;;;29.10;;
51298;SDS011;37382;45.192;9.790;2023-04-01T02:47:37;50.58;;;29.30;;
51298;SDS011;37382;45.192;9.790;2023-04-01T02:50:06;44.42;;;29.17;;
51298;SDS011;37382;45.192;9.790;2023-04-01T02:52:35;43.22;;;28.38;;
51298;SDS011;37382;45.192;9.790;2023-04-01T02:55:03;44.50;;;28.25;;
51298;SDS011;37382;45.192;9.790;2023-04-01T02:57:32;42.75;;;26.77;;
51298;SDS011;37382;45.192;9.790;2023-04-01T02:59:59;48.60;;;27.38;;
51298;SDS011;37382;45.192;9.790;2023-04-01T03:02:27;46.15;;;26.90;;
51298;SDS011;37382;45.192;9.790;2023-04-01T03:04:55;42.35;;;26.60;;
51298;SDS011;37382;45.192;9.790;2023-04-01T03:07:23;41.85;;;26.77;;
51298;SDS011;37382;45.192;9.790;2023-04-01T03:09:50;38.08;;;25.70;;
51298;SDS011;37382;45.192;9.790;2023-04-01T03:12:18;40.25;;;24.98;;
51298;SDS011;37382;45.192;9.790;2023-04-01T03:17:17;31.52;;;22.75;;
51298;SDS011;37382;45.192;9.790;2023-04-01T03:19:45;32.55;;;23.02;;
51298;SDS011;37382;45.192;9.790;2023-04-01T03:22:13;31.13;;;22.13;;
51298;SDS011;37382;45.192;9.790;2023-04-01T03:24:42;43.63;;;23.20;;
51298;SDS011;37382;45.192;9.790;2023-04-01T03:27:10;33.42;;;22.05;;
51298;SDS011;37382;45.192;9.790;2023-04-01T03:29:38;33.65;;;22.15;;
51298;SDS011;37382;45.192;9.790;2023-04-01T03:32:06;30.35;;;21.65;;
51298;SDS011;37382;45.192;9.790;2023-04-01T03:34:33;37.53;;;21.63;;
51298;SDS011;37382;45.192;9.790;2023-04-01T03:37:02;32.63;;;21.17;;
51298;SDS011;37382;45.192;9.790;2023-04-01T03:39:30;33.88;;;21.90;;
51298;SDS011;37382;45.192;9.790;2023-04-01T03:41:58;35.35;;;22.40;;
51298;SDS011;37382;45.192;9.790;2023-04-01T03:44:30;30.98;;;20.17;;
51298;SDS011;37382;45.192;9.790;2023-04-01T03:46:59;28.42;;;20.55;;
51298;SDS011;37382;45.192;9.790;2023-04-01T03:49:28;29.45;;;20.85;;
51298;SDS011;37382;45.192;9.790;2023-04-01T03:51:55;31.92;;;20.88;;
51298;SDS011;37382;45.192;9.790;2023-04-01T03:54:23;35.00;;;20.65;;
51298;SDS011;37382;45.192;9.790;2023-04-01T03:56:51;36.67;;;20.65;;
51298;SDS011;37382;45.192;9.790;2023-04-01T03:59:20;37.55;;;20.83;;
51298;SDS011;37382;45.192;9.790;2023-04-01T04:01:48;29.63;;;21.27;;
51298;SDS011;37382;45.192;9.790;2023-04-01T04:04:15;32.63;;;22.00;;
51298;SDS011;37382;45.192;9.790;2023-04-01T04:06:43;33.65;;;21.30;;
51298;SDS011;37382;45.192;9.790;2023-04-01T04:09:10;34.92;;;22.45;;
51298;SDS011;37382;45.192;9.790;2023-04-01T04:11:38;33.45;;;22.58;;
51298;SDS011;37382;45.192;9.790;2023-04-01T04:14:06;35.28;;;21.00;;
51298;SDS011;37382;45.192;9.790;2023-04-01T04:16:35;36.55;;;21.88;;
51298;SDS011;37382;45.192;9.790;2023-04-01T04:19:04;38.45;;;22.83;;
51298;SDS011;37382;45.192;9.790;2023-04-01T04:21:31;38.10;;;22.02;;
51298;SDS011;37382;45.192;9.790;2023-04-01T04:24:00;32.65;;;21.42;;
51298;SDS011;37382;45.192;9.790;2023-04-01T04:26:42;29.40;;;21.92;;
51298;SDS011;37382;45.192;9.790;2023-04-01T04:29:10;37.72;;;22.17;;
51298;SDS011;37382;45.192;9.790;2023-04-01T04:31:38;28.70;;;20.52;;
51298;SDS011;37382;45.192;9.790;2023-04-01T04:34:06;32.47;;;21.00;;
51298;SDS011;37382;45.192;9.790;2023-04-01T04:36:35;33.50;;;20.55;;
51298;SDS011;37382;45.192;9.790;2023-04-01T04:39:02;34.22;;;21.27;;
51298;SDS011;37382;45.192;9.790;2023-04-01T04:41:32;33.55;;;21.70;;
51298;SDS011;37382;45.192;9.790;2023-04-01T04:44:03;34.53;;;21.48;;
51298;SDS011;37382;45.192;9.790;2023-04-01T04:46:32;35.33;;;22.17;;
51298;SDS011;37382;45.192;9.790;2023-04-01T04:49:09;33.90;;;21.25;;
51298;SDS011;37382;45.192;9.790;2023-04-01T04:51:37;42.10;;;24.00;;
51298;SDS011;37382;45.192;9.790;2023-04-01T04:54:05;42.22;;;23.10;;
51298;SDS011;37382;45.192;9.790;2023-04-01T04:56:53;34.00;;;21.90;;
51298;SDS011;37382;45.192;9.790;2023-04-01T04:59:22;33.83;;;22.10;;
51298;SDS011;37382;45.192;9.790;2023-04-01T05:02:07;35.53;;;20.90;;
51298;SDS011;37382;45.192;9.790;2023-04-01T05:04:35;32.38;;;20.98;;
51298;SDS011;37382;45.192;9.790;2023-04-01T05:07:05;31.23;;;20.77;;
51298;SDS011;37382;45.192;9.790;2023-04-01T05:09:33;31.15;;;21.25;;
51298;SDS011;37382;45.192;9.790;2023-04-01T05:12:02;32.40;;;21.10;;
51298;SDS011;37382;45.192;9.790;2023-04-01T05:14:47;33.13;;;21.83;;
51298;SDS011;37382;45.192;9.790;2023-04-01T05:17:15;33.60;;;20.92;;
51298;SDS011;37382;45.192;9.790;2023-04-01T05:19:43;32.20;;;20.80;;
51298;SDS011;37382;45.192;9.790;2023-04-01T05:22:11;31.50;;;20.70;;
51298;SDS011;37382;45.192;9.790;2023-04-01T05:24:40;34.05;;;22.23;;
51298;SDS011;37382;45.192;9.790;2023-04-01T05:27:07;57.10;;;31.20;;
51298;SDS011;37382;45.192;9.790;2023-04-01T05:29:39;49.83;;;30.87;;
51298;SDS011;37382;45.192;9.790;2023-04-01T05:32:12;55.85;;;34.20;;
51298;SDS011;37382;45.192;9.790;2023-04-01T05:34:40;41.55;;;29.15;;
51298;SDS011;37382;45.192;9.790;2023-04-01T05:37:08;33.83;;;20.23;;
51298;SDS011;37382;45.192;9.790;2023-04-01T05:39:37;30.10;;;18.85;;
51298;SDS011;37382;45.192;9.790;2023-04-01T05:42:06;29.30;;;20.35;;
51298;SDS011;37382;45.192;9.790;2023-04-01T05:44:35;30.35;;;21.65;;
51298;SDS011;37382;45.192;9.790;2023-04-01T05:47:23;27.60;;;19.02;;
51298;SDS011;37382;45.192;9.790;2023-04-01T05:49:51;29.73;;;19.60;;
51298;SDS011;37382;45.192;9.790;2023-04-01T05:52:19;29.17;;;19.67;;
51298;SDS011;37382;45.192;9.790;2023-04-01T05:54:47;31.90;;;20.00;;
51298;SDS011;37382;45.192;9.790;2023-04-01T05:57:15;26.92;;;18.80;;
51298;SDS011;37382;45.192;9.790;2023-04-01T05:59:42;30.02;;;19.13;;
51298;SDS011;37382;45.192;9.790;2023-04-01T06:02:11;29.38;;;20.77;;
51298;SDS011;37382;45.192;9.790;2023-04-01T06:04:39;28.38;;;19.50;;
51298;SDS011;37382;45.192;9.790;2023-04-01T06:07:10;25.85;;;18.73;;
51298;SDS011;37382;45.192;9.790;2023-04-01T06:09:39;23.35;;;18.17;;
51298;SDS011;37382;45.192;9.790;2023-04-01T06:17:47;24.30;;;17.25;;
51298;SDS011;37382;45.192;9.790;2023-04-01T06:26:11;26.05;;;17.65;;
51298;SDS011;37382;45.192;9.790;2023-04-01T06:46:35;24.13;;;13.65;;
51298;SDS011;37382;45.192;9.790;2023-04-01T06:52:15;22.95;;;12.57;;
51298;SDS011;37382;45.192;9.790;2023-04-01T06:55:18;22.90;;;9.85;;
51298;SDS011;37382;45.192;9.790;2023-04-01T06:58:19;11.77;;;8.15;;
51298;SDS011;37382;45.192;9.790;2023-04-01T07:00:54;12.32;;;8.73;;
51298;SDS011;37382;45.192;9.790;2023-04-01T07:03:36;13.15;;;7.65;;
51298;SDS011;37382;45.192;9.790;2023-04-01T07:06:10;17.60;;;8.80;;
51298;SDS011;37382;45.192;9.790;2023-04-01T07:08:51;13.32;;;8.38;;
51298;SDS011;37382;45.192;9.790;2023-04-01T07:11:25;15.02;;;8.63;;
51298;SDS011;37382;45.192;9.790;2023-04-01T07:14:26;12.40;;;8.32;;
51298;SDS011;37382;45.192;9.790;2023-04-01T07:17:15;15.18;;;8.68;;
51298;SDS011;37382;45.192;9.790;2023-04-01T07:19:57;19.25;;;8.27;;
51298;SDS011;37382;45.192;9.790;2023-04-01T07:27:52;15.32;;;8.73;;
51298;SDS011;37382;45.192;9.790;2023-04-01T07:30:24;11.43;;;7.43;;
51298;SDS011;37382;45.192;9.790;2023-04-01T07:35:41;8.10;;;6.07;;
51298;SDS011;37382;45.192;9.790;2023-04-01T07:43:34;7.13;;;4.40;;
51298;SDS011;37382;45.192;9.790;2023-04-01T07:46:40;15.40;;;4.95;;
51298;SDS011;37382;45.192;9.790;2023-04-01T07:51:58;5.20;;;3.03;;
51298;SDS011;37382;45.192;9.790;2023-04-01T07:57:06;5.57;;;3.08;;
51298;SDS011;37382;45.192;9.790;2023-04-01T07:59:54;7.00;;;3.03;;
51298;SDS011;37382;45.192;9.790;2023-04-01T08:05:56;7.35;;;2.47;;
51298;SDS011;37382;45.192;9.790;2023-04-01T08:15:25;3.72;;;2.05;;
51298;SDS011;37382;45.192;9.790;2023-04-01T08:18:40;10.30;;;1.80;;
51298;SDS011;37382;45.192;9.790;2023-04-01T08:21:21;2.45;;;1.75;;
51298;SDS011;37382;45.192;9.790;2023-04-01T08:23:53;3.75;;;1.60;;
51298;SDS011;37382;45.192;9.790;2023-04-01T08:26:43;2.53;;;1.70;;
51298;SDS011;37382;45.192;9.790;2023-04-01T08:29:16;7.75;;;1.90;;
51298;SDS011;37382;45.192;9.790;2023-04-01T08:31:52;2.67;;;1.40;;
51298;SDS011;37382;45.192;9.790;2023-04-01T08:34:28;3.38;;;1.65;;
51298;SDS011;37382;45.192;9.790;2023-04-01T08:37:06;4.70;;;1.55;;
51298;SDS011;37382;45.192;9.790;2023-04-01T08:39:43;3.40;;;1.80;;
51298;SDS011;37382;45.192;9.790;2023-04-01T08:42:28;5.15;;;1.90;;
51298;SDS011;37382;45.192;9.790;2023-04-01T09:00:05;12.38;;;1.70;;
51298;SDS011;37382;45.192;9.790;2023-04-01T09:29:26;6.43;;;1.48;;
51298;SDS011;37382;45.192;9.790;2023-04-01T09:35:21;2.53;;;1.25;;
51298;SDS011;37382;45.192;9.790;2023-04-01T09:37:57;3.20;;;1.40;;
51298;SDS011;37382;45.192;9.790;2023-04-01T09:40:53;12.55;;;1.00;;
51298;SDS011;37382;45.192;9.790;2023-04-01T09:49:43;3.17;;;1.00;;
51298;SDS011;37382;45.192;9.790;2023-04-01T09:58:19;4.43;;;1.23;;
51298;SDS011;37382;45.192;9.790;2023-04-01T10:30:23;2.30;;;1.67;;
51298;SDS011;37382;45.192;9.790;2023-04-01T10:41:37;2.65;;;1.25;;
51298;SDS011;37382;45.192;9.790;2023-04-01T11:14:44;3.80;;;0.50;;
51298;SDS011;37382;45.192;9.790;2023-04-01T11:36:04;0.47;;;0.30;;
51298;SDS011;37382;45.192;9.790;2023-04-01T11:42:34;1.52;;;0.90;;
51298;SDS011;37382;45.192;9.790;2023-04-01T12:06:16;0.30;;;0.20;;
51298;SDS011;37382;45.192;9.790;2023-04-01T12:11:48;0.40;;;0.30;;
51298;SDS011;37382;45.192;9.790;2023-04-01T12:14:32;1.35;;;0.25;;
51298;SDS011;37382;45.192;9.790;2023-04-01T12:17:21;0.30;;;0.20;;
51298;SDS011;37382;45.192;9.790;2023-04-01T12:28:47;3.33;;;0.75;;
51298;SDS011;37382;45.192;9.790;2023-04-01T12:42:36;6.50;;;0.20;;
51298;SDS011;37382;45.192;9.790;2023-04-01T12:45:23;0.25;;;0.20;;
51298;SDS011;37382;45.192;9.790;2023-04-01T12:48:14;0.20;;;0.20;;
51298;SDS011;37382;45.192;9.790;2023-04-01T12:56:09;0.57;;;0.30;;
51298;SDS011;37382;45.192;9.790;2023-04-01T13:04:33;0.20;;;0.10;;
51298;SDS011;37382;45.192;9.790;2023-04-01T13:20:55;1.45;;;0.40;;
51298;SDS011;37382;45.192;9.790;2023-04-01T13:26:34;3.20;;;0.20;;
51298;SDS011;37382;45.192;9.790;2023-04-01T13:43:43;0.25;;;0.25;;
51298;SDS011;37382;45.192;9.790;2023-04-01T13:46:27;2.47;;;0.38;;
51298;SDS011;37382;45.192;9.790;2023-04-01T13:49:13;0.55;;;0.40;;
51298;SDS011;37382;45.192;9.790;2023-04-01T14:12:56;0.30;;;0.10;;
51298;SDS011;37382;45.192;9.790;2023-04-01T14:15:31;0.55;;;0.20;;
51298;SDS011;37382;45.192;9.790;2023-04-01T14:27:08;1.77;;;0.30;;
51298;SDS011;37382;45.192;9.790;2023-04-01T14:29:51;2.60;;;0.22;;
51298;SDS011;37382;45.192;9.790;2023-04-01T14:32:34;3.38;;;0.30;;
51298;SDS011;37382;45.192;9.790;2023-04-01T14:49:34;3.63;;;0.40;;
51298;SDS011;37382;45.192;9.790;2023-04-01T14:52:05;5.40;;;0.60;;
51298;SDS011;37382;45.192;9.790;2023-04-01T14:54:44;6.60;;;0.47;;
51298;SDS011;37382;45.192;9.790;2023-04-01T14:57:15;1.02;;;0.30;;
51298;SDS011;37382;45.192;9.790;2023-04-01T14:59:52;6.03;;;0.40;;
51298;SDS011;37382;45.192;9.790;2023-04-01T15:08:11;0.60;;;0.30;;
51298;SDS011;37382;45.192;9.790;2023-04-01T15:18:46;1.48;;;0.40;;
51298;SDS011;37382;45.192;9.790;2023-04-01T15:24:16;1.58;;;0.35;;
51298;SDS011;37382;45.192;9.790;2023-04-01T15:27:06;0.75;;;0.60;;
51298;SDS011;37382;45.192;9.790;2023-04-01T15:32:57;4.35;;;0.30;;
51298;SDS011;37382;45.192;9.790;2023-04-01T15:38:04;0.10;;;0.10;;
51298;SDS011;37382;45.192;9.790;2023-04-01T15:43:51;1.45;;;0.20;;
51298;SDS011;37382;45.192;9.790;2023-04-01T16:02:48;0.30;;;0.30;;
51298;SDS011;37382;45.192;9.790;2023-04-01T16:05:24;4.95;;;0.20;;
51298;SDS011;37382;45.192;9.790;2023-04-01T16:13:53;5.72;;;0.40;;
51298;SDS011;37382;45.192;9.790;2023-04-01T16:24:46;0.88;;;0.30;;
51298;SDS011;37382;45.192;9.790;2023-04-01T16:27:25;1.17;;;0.35;;
51298;SDS011;37382;45.192;9.790;2023-04-01T16:30:03;6.32;;;0.50;;
51298;SDS011;37382;45.192;9.790;2023-04-01T16:35:49;4.95;;;0.40;;
51298;SDS011;37382;45.192;9.790;2023-04-01T16:41:13;2.40;;;0.45;;
51298;SDS011;37382;45.192;9.790;2023-04-01T16:46:47;6.50;;;1.00;;
51298;SDS011;37382;45.192;9.790;2023-04-01T16:49:39;1.17;;;0.80;;
51298;SDS011;37382;45.192;9.790;2023-04-01T16:52:16;9.68;;;0.90;;
51298;SDS011;37382;45.192;9.790;2023-04-01T16:57:51;1.25;;;0.75;;
51298;SDS011;37382;45.192;9.790;2023-04-01T17:03:13;7.78;;;0.65;;
51298;SDS011;37382;45.192;9.790;2023-04-01T17:17:01;1.20;;;0.77;;
51298;SDS011;37382;45.192;9.790;2023-04-01T17:19:38;0.75;;;0.32;;
51298;SDS011;37382;45.192;9.790;2023-04-01T17:22:28;1.08;;;0.50;;
51298;SDS011;37382;45.192;9.790;2023-04-01T17:34:09;1.83;;;0.50;;
51298;SDS011;37382;45.192;9.790;2023-04-01T17:39:41;2.33;;;0.57;;
51298;SDS011;37382;45.192;9.790;2023-04-01T18:09:03;5.78;;;1.30;;
51298;SDS011;37382;45.192;9.790;2023-04-01T18:27:41;10.23;;;1.40;;
51298;SDS011;37382;45.192;9.790;2023-04-01T18:33:02;4.15;;;2.30;;
51298;SDS011;37382;45.192;9.790;2023-04-01T18:35:47;7.60;;;2.40;;
51298;SDS011;37382;45.192;9.790;2023-04-01T18:38:25;9.30;;;2.60;;
51298;SDS011;37382;45.192;9.790;2023-04-01T18:41:15;12.38;;;3.15;;
51298;SDS011;37382;45.192;9.790;2023-04-01T18:49:54;22.40;;;10.00;;
51298;SDS011;37382;45.192;9.790;2023-04-01T18:52:47;82.82;;;45.05;;
51298;SDS011;37382;45.192;9.790;2023-04-01T19:00:44;50.38;;;26.77;;
51298;SDS011;37382;45.192;9.790;2023-04-01T19:05:45;18.33;;;11.18;;
51298;SDS011;37382;45.192;9.790;2023-04-01T19:11:06;12.38;;;4.78;;
51298;SDS011;37382;45.192;9.790;2023-04-01T19:21:56;16.02;;;5.65;;
51298;SDS011;37382;45.192;9.790;2023-04-01T19:27:29;28.10;;;8.68;;
51298;SDS011;37382;45.192;9.790;2023-04-01T19:41:14;16.42;;;6.05;;
51298;SDS011;37382;45.192;9.790;2023-04-01T19:46:48;28.15;;;7.78;;
51298;SDS011;37382;45.192;9.790;2023-04-01T19:52:20;17.25;;;5.25;;
51298;SDS011;37382;45.192;9.790;2023-04-01T19:55:09;15.40;;;6.88;;
51298;SDS011;37382;45.192;9.790;2023-04-01T20:00:36;7.28;;;2.55;;
51298;SDS011;37382;45.192;9.790;2023-04-01T20:17:13;9.35;;;2.40;;
51298;SDS011;37382;45.192;9.790;2023-04-01T20:27:57;3.22;;;1.75;;
51298;SDS011;37382;45.192;9.790;2023-04-01T20:33:49;16.65;;;2.10;;
51298;SDS011;37382;45.192;9.790;2023-04-01T20:37:00;16.23;;;2.47;;
51298;SDS011;37382;45.192;9.790;2023-04-01T20:42:21;6.85;;;1.90;;
51298;SDS011;37382;45.192;9.790;2023-04-01T20:45:42;3.67;;;1.85;;
51298;SDS011;37382;45.192;9.790;2023-04-01T20:48:46;5.32;;;1.73;;
51298;SDS011;37382;45.192;9.790;2023-04-01T20:51:23;10.95;;;2.00;;
51298;SDS011;37382;45.192;9.790;2023-04-01T20:57:12;6.07;;;1.40;;
51298;SDS011;37382;45.192;9.790;2023-04-01T21:00:03;2.13;;;1.40;;
51298;SDS011;37382;45.192;9.790;2023-04-01T21:23:05;5.25;;;1.70;;
51298;SDS011;37382;45.192;9.790;2023-04-01T21:28:33;4.22;;;1.52;;
51298;SDS011;37382;45.192;9.790;2023-04-01T22:00:33;4.00;;;1.80;;
51298;SDS011;37382;45.192;9.790;2023-04-01T22:14:27;4.45;;;2.50;;
51298;SDS011;37382;45.192;9.790;2023-04-01T22:17:15;7.45;;;2.28;;
51298;SDS011;37382;45.192;9.790;2023-04-01T22:20:20;8.98;;;2.67;;
51298;SDS011;37382;45.192;9.790;2023-04-01T22:28:44;6.95;;;2.17;;
51298;SDS011;37382;45.192;9.790;2023-04-01T22:31:14;3.58;;;2.45;;
51298;SDS011;37382;45.192;9.790;2023-04-01T22:45:29;5.13;;;2.25;;
51298;SDS011;37382;45.192;9.790;2023-04-01T22:50:52;4.18;;;2.60;;
51298;SDS011;37382;45.192;9.790;2023-04-01T22:56:23;5.50;;;2.55;;
51298;SDS011;37382;45.192;9.790;2023-04-01T23:01:33;4.70;;;2.25;;
51298;SDS011;37382;45.192;9.790;2023-04-01T23:04:07;7.45;;;2.55;;
51298;SDS011;37382;45.192;9.790;2023-04-01T23:06:39;5.05;;;2.40;;
51298;SDS011;37382;45.192;9.790;2023-04-01T23:09:23;6.47;;;2.33;;
51298;SDS011;37382;45.192;9.790;2023-04-01T23:19:52;8.57;;;2.50;;
51298;SDS011;37382;45.192;9.790;2023-04-01T23:25:04;6.75;;;2.50;;
51298;SDS011;37382;45.192;9.790;2023-04-01T23:27:51;11.27;;;2.30;;
51298;SDS011;37382;45.192;9.790;2023-04-01T23:38:39;7.28;;;2.33;;
51298;SDS011;37382;45.192;9.790;2023-04-01T23:41:09;4.50;;;2.45;;
51298;SDS011;37382;45.192;9.790;2023-04-01T23:43:54;7.18;;;2.30;;
51298;SDS011;37382;45.192;9.790;2023-04-01T23:46:25;4.15;;;2.28;;
51298;SDS011;37382;45.192;9.790;2023-04-01T23:48:54;8.95;;;2.55;;
51298;SDS011;37382;45.192;9.790;2023-04-01T23:51:23;4.28;;;2.25;;
51298;SDS011;37382;45.192;9.790;2023-04-01T23:54:02;5.00;;;2.67;;
51298;SDS011;37382;45.192;9.790;2023-04-01T23:56:38;13.73;;;2.45;;
51298;SDS011;37382;45.192;9.790;2023-04-01T23:59:19;4.88;;;2.35;;
